createdAt,value
2023-07-31T00:00:15.070Z,26.94
2023-07-31T00:01:15.156Z,26.94
2023-07-31T00:02:15.067Z,26.94
2023-07-31T00:03:15.128Z,26.94
2023-07-31T00:04:15.054Z,26.94
2023-07-31T00:05:15.046Z,26.93
2023-07-31T00:06:15.022Z,26.93
2023-07-31T00:07:15.023Z,26.93
2023-07-31T00:08:15.033Z,26.93
2023-07-31T00:09:15.019Z,26.93
2023-07-31T00:10:15.003Z,26.93
2023-07-31T00:11:14.990Z,26.93
2023-07-31T00:12:14.984Z,26.94
2023-07-31T00:13:14.997Z,26.93
2023-07-31T00:14:14.958Z,26.92
2023-07-31T00:15:14.966Z,26.93
2023-07-31T00:16:15.058Z,26.93
2023-07-31T00:17:14.965Z,26.93
2023-07-31T00:18:14.998Z,26.93
2023-07-31T00:19:15.065Z,26.93
2023-07-31T00:20:15.136Z,26.93
2023-07-31T00:21:15.240Z,26.93
2023-07-31T00:22:15.272Z,26.93
2023-07-31T00:23:15.316Z,26.93
2023-07-31T00:24:15.381Z,26.93
2023-07-31T00:25:15.458Z,26.93
2023-07-31T00:26:15.516Z,26.92
2023-07-31T00:27:15.583Z,26.93
2023-07-31T00:28:15.724Z,26.93
2023-07-31T00:29:15.704Z,26.92
2023-07-31T00:30:15.764Z,26.92
2023-07-31T00:31:15.865Z,26.92
2023-07-31T00:32:15.902Z,26.92
2023-07-31T00:33:16.000Z,26.92
2023-07-31T00:34:16.021Z,26.92
2023-07-31T00:35:16.091Z,26.92
2023-07-31T00:36:16.164Z,26.92
2023-07-31T00:37:16.212Z,26.92
2023-07-31T00:38:16.259Z,26.92
2023-07-31T00:39:16.327Z,26.93
2023-07-31T00:40:16.390Z,26.92
2023-07-31T00:41:16.442Z,26.92
2023-07-31T00:42:16.505Z,26.92
2023-07-31T00:43:16.586Z,26.92
2023-07-31T00:44:16.654Z,26.92
2023-07-31T00:45:16.726Z,26.91
2023-07-31T00:46:16.778Z,26.92
2023-07-31T00:47:16.853Z,26.92
2023-07-31T00:48:16.883Z,26.91
2023-07-31T00:49:17.036Z,26.92
2023-07-31T00:50:17.002Z,26.92
2023-07-31T00:51:17.068Z,26.92
2023-07-31T00:52:17.137Z,26.91
2023-07-31T00:53:17.175Z,26.92
2023-07-31T00:54:17.248Z,26.91
2023-07-31T00:55:17.288Z,26.92
2023-07-31T00:56:17.368Z,26.91
2023-07-31T00:57:17.416Z,26.91
2023-07-31T00:58:17.473Z,26.91
2023-07-31T00:59:17.528Z,26.91
2023-07-31T01:00:17.588Z,26.91
2023-07-31T01:01:17.670Z,26.91
2023-07-31T01:02:17.807Z,26.92
2023-07-31T01:03:17.796Z,26.91
2023-07-31T01:04:17.820Z,26.91
2023-07-31T01:05:17.895Z,26.91
2023-07-31T01:06:17.944Z,26.90
2023-07-31T01:07:18.006Z,26.92
2023-07-31T01:08:18.074Z,26.90
2023-07-31T01:09:18.158Z,26.91
2023-07-31T01:10:18.312Z,26.90
2023-07-31T01:11:18.297Z,26.90
2023-07-31T01:12:18.342Z,26.91
2023-07-31T01:13:18.390Z,26.91
2023-07-31T01:14:18.460Z,26.90
2023-07-31T01:15:18.489Z,26.90
2023-07-31T01:16:18.598Z,26.90
2023-07-31T01:17:18.800Z,26.91
2023-07-31T01:18:18.679Z,26.89
2023-07-31T01:19:18.746Z,26.90
2023-07-31T01:20:18.844Z,26.90
2023-07-31T01:21:18.866Z,26.90
2023-07-31T01:22:18.942Z,26.90
2023-07-31T01:23:18.992Z,26.90
2023-07-31T01:24:19.040Z,26.90
2023-07-31T01:25:19.113Z,26.90
2023-07-31T01:26:19.181Z,26.89
2023-07-31T01:27:19.248Z,26.89
2023-07-31T01:28:19.408Z,26.89
2023-07-31T01:29:19.357Z,26.90
2023-07-31T01:30:19.421Z,26.89
2023-07-31T01:31:19.549Z,26.89
2023-07-31T01:32:19.618Z,26.89
2023-07-31T01:33:19.603Z,26.89
2023-07-31T01:34:19.666Z,26.89
2023-07-31T01:35:19.740Z,26.89
2023-07-31T01:36:19.804Z,26.89
2023-07-31T01:37:19.878Z,26.89
2023-07-31T01:38:19.909Z,26.89
2023-07-31T01:39:19.982Z,26.88
2023-07-31T01:40:20.028Z,26.89
2023-07-31T01:41:20.096Z,26.88
2023-07-31T01:42:20.162Z,26.89
2023-07-31T01:43:20.218Z,26.88
2023-07-31T01:44:20.287Z,26.89
2023-07-31T01:45:20.328Z,26.88
2023-07-31T01:46:20.410Z,26.88
2023-07-31T01:47:20.548Z,26.87
2023-07-31T01:48:20.471Z,26.89
2023-07-31T01:49:20.519Z,26.88
2023-07-31T01:50:20.565Z,26.88
2023-07-31T01:51:20.614Z,26.87
2023-07-31T01:52:20.648Z,26.87
2023-07-31T01:53:20.686Z,26.88
2023-07-31T01:54:20.739Z,26.88
2023-07-31T01:55:20.772Z,26.88
2023-07-31T01:56:20.825Z,26.87
2023-07-31T01:57:20.895Z,26.87
2023-07-31T01:58:20.940Z,26.88
2023-07-31T01:59:21.004Z,26.87
2023-07-31T02:00:21.069Z,26.87
2023-07-31T02:01:21.210Z,26.88
2023-07-31T02:02:21.264Z,26.87
2023-07-31T02:03:21.375Z,26.87
2023-07-31T02:04:21.316Z,26.87
2023-07-31T02:05:21.368Z,26.86
2023-07-31T02:06:21.412Z,26.87
2023-07-31T02:07:21.481Z,26.87
2023-07-31T02:08:21.554Z,26.87
2023-07-31T02:09:21.624Z,26.87
2023-07-31T02:10:21.670Z,26.87
2023-07-31T02:11:21.740Z,26.86
2023-07-31T02:12:21.810Z,26.86
2023-07-31T02:13:21.868Z,26.87
2023-07-31T02:14:21.905Z,26.87
2023-07-31T02:15:21.961Z,26.86
2023-07-31T02:16:22.037Z,26.86
2023-07-31T02:17:22.062Z,26.86
2023-07-31T02:18:22.103Z,26.86
2023-07-31T02:19:22.153Z,26.86
2023-07-31T02:20:22.192Z,26.86
2023-07-31T02:21:22.258Z,26.86
2023-07-31T02:22:22.303Z,26.85
2023-07-31T02:23:22.373Z,26.86
2023-07-31T02:24:22.406Z,26.86
2023-07-31T02:25:22.451Z,26.86
2023-07-31T02:26:22.508Z,26.86
2023-07-31T02:27:22.582Z,26.86
2023-07-31T02:28:22.646Z,26.85
2023-07-31T02:29:22.678Z,26.85
2023-07-31T02:30:22.730Z,26.86
2023-07-31T02:31:23.478Z,26.85
2023-07-31T02:32:22.873Z,26.86
2023-07-31T02:33:22.929Z,26.86
2023-07-31T02:34:22.962Z,26.86
2023-07-31T02:35:23.042Z,26.85
2023-07-31T02:36:23.108Z,26.85
2023-07-31T02:37:23.172Z,26.85
2023-07-31T02:38:23.253Z,26.85
2023-07-31T02:39:23.271Z,26.85
2023-07-31T02:40:23.315Z,26.85
2023-07-31T02:41:23.354Z,26.85
2023-07-31T02:42:23.411Z,26.85
2023-07-31T02:43:23.449Z,26.85
2023-07-31T02:44:23.492Z,26.85
2023-07-31T02:45:23.535Z,26.84
2023-07-31T02:46:23.788Z,26.84
2023-07-31T02:47:23.684Z,26.84
2023-07-31T02:48:23.694Z,26.84
2023-07-31T02:49:23.741Z,26.84
2023-07-31T02:50:23.793Z,26.85
2023-07-31T02:51:23.846Z,26.84
2023-07-31T02:52:23.891Z,26.85
2023-07-31T02:53:23.943Z,26.85
2023-07-31T02:54:23.979Z,26.84
2023-07-31T02:55:24.004Z,26.85
2023-07-31T02:56:24.107Z,26.84
2023-07-31T02:57:24.098Z,26.85
2023-07-31T02:58:24.145Z,26.84
2023-07-31T02:59:24.201Z,26.84
2023-07-31T03:00:24.249Z,26.84
2023-07-31T03:01:24.342Z,26.84
2023-07-31T03:02:24.516Z,26.84
2023-07-31T03:03:24.488Z,26.84
2023-07-31T03:04:24.481Z,26.83
2023-07-31T03:05:24.571Z,26.84
2023-07-31T03:06:24.619Z,26.83
2023-07-31T03:07:24.619Z,26.84
2023-07-31T03:08:24.655Z,26.84
2023-07-31T03:09:24.685Z,26.83
2023-07-31T03:10:24.757Z,26.83
2023-07-31T03:11:24.796Z,26.83
2023-07-31T03:12:24.838Z,26.84
2023-07-31T03:13:24.884Z,26.83
2023-07-31T03:14:24.932Z,26.84
2023-07-31T03:15:24.979Z,26.83
2023-07-31T03:16:25.073Z,26.83
2023-07-31T03:17:25.073Z,26.83
2023-07-31T03:18:25.112Z,26.83
2023-07-31T03:19:25.185Z,26.83
2023-07-31T03:20:25.223Z,26.83
2023-07-31T03:21:25.289Z,26.83
2023-07-31T03:22:25.351Z,26.83
2023-07-31T03:23:25.420Z,26.83
2023-07-31T03:24:25.491Z,26.83
2023-07-31T03:25:25.543Z,26.83
2023-07-31T03:26:25.602Z,26.83
2023-07-31T03:27:25.671Z,26.82
2023-07-31T03:28:25.771Z,26.83
2023-07-31T03:29:25.771Z,26.83
2023-07-31T03:30:25.818Z,26.82
2023-07-31T03:31:25.945Z,26.82
2023-07-31T03:32:26.015Z,26.82
2023-07-31T03:33:25.967Z,26.82
2023-07-31T03:34:26.001Z,26.82
2023-07-31T03:35:26.044Z,26.83
2023-07-31T03:36:26.093Z,26.82
2023-07-31T03:37:26.141Z,26.82
2023-07-31T03:38:26.200Z,26.82
2023-07-31T03:39:26.270Z,26.82
2023-07-31T03:40:26.306Z,26.82
2023-07-31T03:41:26.377Z,26.82
2023-07-31T03:42:26.425Z,26.82
2023-07-31T03:43:26.470Z,26.82
2023-07-31T03:44:26.531Z,26.82
2023-07-31T03:45:26.578Z,26.82
2023-07-31T03:46:26.663Z,26.82
2023-07-31T03:47:26.706Z,26.82
2023-07-31T03:48:26.732Z,26.82
2023-07-31T03:49:26.797Z,26.82
2023-07-31T03:50:26.845Z,26.82
2023-07-31T03:51:26.998Z,26.81
2023-07-31T03:52:26.944Z,26.81
2023-07-31T03:53:26.980Z,26.82
2023-07-31T03:54:27.074Z,26.81
2023-07-31T03:55:27.102Z,26.81
2023-07-31T03:56:27.146Z,26.81
2023-07-31T03:57:27.203Z,26.81
2023-07-31T03:58:27.260Z,26.82
2023-07-31T03:59:27.331Z,26.82
2023-07-31T04:00:27.373Z,26.81
2023-07-31T04:01:27.499Z,26.81
2023-07-31T04:02:27.570Z,26.81
2023-07-31T04:03:27.593Z,26.81
2023-07-31T04:04:27.626Z,26.82
2023-07-31T04:05:27.718Z,26.81
2023-07-31T04:06:27.759Z,26.81
2023-07-31T04:07:27.794Z,26.81
2023-07-31T04:08:27.859Z,26.81
2023-07-31T04:09:27.889Z,26.81
2023-07-31T04:10:27.947Z,26.82
2023-07-31T04:11:27.994Z,26.82
2023-07-31T04:12:28.015Z,26.82
2023-07-31T04:13:28.063Z,26.82
2023-07-31T04:14:28.106Z,26.81
2023-07-31T04:15:28.139Z,26.82
2023-07-31T04:16:28.211Z,26.82
2023-07-31T04:17:28.220Z,26.82
2023-07-31T04:18:28.240Z,26.82
2023-07-31T04:19:28.287Z,26.82
2023-07-31T04:20:28.355Z,26.81
2023-07-31T04:21:28.426Z,26.82
2023-07-31T04:22:28.469Z,26.82
2023-07-31T04:23:28.536Z,26.82
2023-07-31T04:24:28.597Z,26.81
2023-07-31T04:25:28.664Z,26.81
2023-07-31T04:26:28.711Z,26.81
2023-07-31T04:27:28.778Z,26.81
2023-07-31T04:28:28.916Z,26.81
2023-07-31T04:29:28.899Z,26.82
2023-07-31T04:30:28.957Z,26.82
2023-07-31T04:31:29.054Z,26.82
2023-07-31T04:32:29.143Z,26.81
2023-07-31T04:33:29.159Z,26.82
2023-07-31T04:34:29.249Z,26.82
2023-07-31T04:35:29.271Z,26.82
2023-07-31T04:36:29.364Z,26.82
2023-07-31T04:37:29.393Z,26.82
2023-07-31T04:38:29.464Z,26.82
2023-07-31T04:39:29.531Z,26.82
2023-07-31T04:40:29.580Z,26.82
2023-07-31T04:41:29.627Z,26.82
2023-07-31T04:42:29.668Z,26.83
2023-07-31T04:43:29.725Z,26.82
2023-07-31T04:44:29.796Z,26.82
2023-07-31T04:45:29.867Z,26.82
2023-07-31T04:46:29.923Z,26.82
2023-07-31T04:47:30.003Z,26.82
2023-07-31T04:48:30.032Z,26.81
2023-07-31T04:49:30.084Z,26.82
2023-07-31T04:50:30.165Z,26.82
2023-07-31T04:51:30.218Z,26.82
2023-07-31T04:52:30.287Z,26.83
2023-07-31T04:53:30.372Z,26.83
2023-07-31T04:54:30.412Z,26.83
2023-07-31T04:55:30.477Z,26.83
2023-07-31T04:56:30.532Z,26.84
2023-07-31T04:57:30.630Z,26.84
2023-07-31T04:58:30.642Z,26.84
2023-07-31T04:59:30.726Z,26.85
2023-07-31T05:00:30.780Z,26.85
2023-07-31T05:01:30.841Z,26.85
2023-07-31T05:02:30.961Z,26.86
2023-07-31T05:03:30.995Z,26.86
2023-07-31T05:04:30.932Z,26.86
2023-07-31T05:05:30.998Z,26.87
2023-07-31T05:06:31.062Z,26.87
2023-07-31T05:07:31.093Z,26.87
2023-07-31T05:08:31.156Z,26.87
2023-07-31T05:09:31.208Z,26.87
2023-07-31T05:10:31.293Z,26.88
2023-07-31T05:11:31.361Z,26.87
2023-07-31T05:12:31.391Z,26.87
2023-07-31T05:13:31.467Z,26.87
2023-07-31T05:14:31.518Z,26.87
2023-07-31T05:15:31.593Z,26.87
2023-07-31T05:16:31.687Z,26.87
2023-07-31T05:17:31.780Z,26.87
2023-07-31T05:18:31.791Z,26.87
2023-07-31T05:19:31.820Z,26.87
2023-07-31T05:20:31.862Z,26.87
2023-07-31T05:21:31.888Z,26.86
2023-07-31T05:22:31.942Z,26.87
2023-07-31T05:23:31.969Z,26.86
2023-07-31T05:24:32.013Z,26.86
2023-07-31T05:25:32.050Z,26.86
2023-07-31T05:26:32.077Z,26.86
2023-07-31T05:27:32.105Z,26.86
2023-07-31T05:28:32.203Z,26.86
2023-07-31T05:29:32.230Z,26.85
2023-07-31T05:30:32.260Z,26.86
2023-07-31T05:31:32.299Z,26.85
2023-07-31T05:32:32.430Z,26.85
2023-07-31T05:33:32.402Z,26.86
2023-07-31T05:34:32.438Z,26.85
2023-07-31T05:35:32.485Z,26.86
2023-07-31T05:36:32.532Z,26.86
2023-07-31T05:37:32.553Z,26.85
2023-07-31T05:38:32.621Z,26.86
2023-07-31T05:39:32.674Z,26.86
2023-07-31T05:40:32.686Z,26.86
2023-07-31T05:41:32.742Z,26.86
2023-07-31T05:42:32.781Z,26.86
2023-07-31T05:43:32.852Z,26.87
2023-07-31T05:44:32.893Z,26.87
2023-07-31T05:45:32.963Z,26.88
2023-07-31T05:46:33.071Z,26.88
2023-07-31T05:47:33.075Z,26.88
2023-07-31T05:48:33.141Z,26.90
2023-07-31T05:49:33.194Z,26.90
2023-07-31T05:50:33.261Z,26.90
2023-07-31T05:51:33.334Z,26.91
2023-07-31T05:52:33.411Z,26.91
2023-07-31T05:53:33.509Z,26.92
2023-07-31T05:54:33.520Z,26.92
2023-07-31T05:55:33.586Z,26.93
2023-07-31T05:56:33.667Z,26.93
2023-07-31T05:57:33.714Z,26.94
2023-07-31T05:58:33.774Z,26.93
2023-07-31T05:59:33.840Z,26.93
2023-07-31T06:00:33.896Z,26.93
2023-07-31T06:01:33.980Z,26.93
2023-07-31T06:02:34.097Z,26.94
2023-07-31T06:03:34.209Z,26.94
2023-07-31T06:04:34.229Z,26.94
2023-07-31T06:05:34.189Z,26.94
2023-07-31T06:06:34.257Z,26.95
2023-07-31T06:07:34.303Z,26.95
2023-07-31T06:08:34.375Z,26.96
2023-07-31T06:09:34.429Z,26.95
2023-07-31T06:10:34.492Z,26.96
2023-07-31T06:11:34.571Z,26.97
2023-07-31T06:12:34.601Z,26.97
2023-07-31T06:13:34.663Z,26.97
2023-07-31T06:14:34.694Z,26.97
2023-07-31T06:15:34.766Z,26.97
2023-07-31T06:16:34.816Z,26.97
2023-07-31T06:17:34.900Z,26.97
2023-07-31T06:18:34.911Z,26.97
2023-07-31T06:19:34.997Z,26.97
2023-07-31T06:20:35.035Z,26.98
2023-07-31T06:21:35.082Z,26.97
2023-07-31T06:22:35.150Z,26.98
2023-07-31T06:23:35.194Z,26.98
2023-07-31T06:24:35.245Z,26.98
2023-07-31T06:25:35.284Z,26.97
2023-07-31T06:26:35.431Z,26.98
2023-07-31T06:27:35.407Z,26.98
2023-07-31T06:28:35.554Z,26.98
2023-07-31T06:29:35.517Z,26.98
2023-07-31T06:30:35.579Z,26.99
2023-07-31T06:31:35.775Z,26.99
2023-07-31T06:32:35.801Z,26.99
2023-07-31T06:33:35.774Z,26.98
2023-07-31T06:34:35.821Z,26.98
2023-07-31T06:35:35.890Z,26.99
2023-07-31T06:36:35.963Z,27.00
2023-07-31T06:37:37.964Z,26.99
2023-07-31T06:38:36.074Z,27.00
2023-07-31T06:39:36.119Z,27.01
2023-07-31T06:40:36.186Z,27.01
2023-07-31T06:41:36.268Z,27.02
2023-07-31T06:42:36.301Z,27.03
2023-07-31T06:43:36.347Z,27.03
2023-07-31T06:44:36.404Z,27.03
2023-07-31T06:45:36.518Z,27.03
2023-07-31T06:46:36.538Z,27.03
2023-07-31T06:47:36.637Z,27.03
2023-07-31T06:48:36.626Z,27.04
2023-07-31T06:49:36.688Z,27.06
2023-07-31T06:50:36.770Z,27.06
2023-07-31T06:51:36.791Z,27.07
2023-07-31T06:52:36.845Z,27.07
2023-07-31T06:53:36.903Z,27.07
2023-07-31T06:54:36.962Z,27.07
2023-07-31T06:55:37.012Z,27.08
2023-07-31T06:56:39.856Z,27.08
2023-07-31T06:57:37.054Z,27.08
2023-07-31T06:58:37.049Z,27.08
2023-07-31T06:59:37.049Z,27.08
2023-07-31T07:00:37.039Z,27.08
2023-07-31T07:01:37.088Z,27.07
2023-07-31T07:02:37.065Z,27.06
2023-07-31T07:03:37.014Z,27.05
2023-07-31T07:04:37.033Z,27.05
2023-07-31T07:05:37.136Z,27.05
2023-07-31T07:06:37.068Z,27.04
2023-07-31T07:07:36.985Z,27.04
2023-07-31T07:08:36.982Z,27.04
2023-07-31T07:09:36.970Z,27.03
2023-07-31T07:10:36.982Z,27.03
2023-07-31T07:11:36.958Z,27.03
2023-07-31T07:12:37.056Z,27.03
2023-07-31T07:13:39.289Z,27.03
2023-07-31T07:14:36.937Z,27.03
2023-07-31T07:15:36.923Z,27.03
2023-07-31T07:16:36.960Z,27.03
2023-07-31T07:17:36.938Z,27.03
2023-07-31T07:18:39.472Z,27.04
2023-07-31T07:19:36.899Z,27.04
2023-07-31T07:20:36.894Z,27.05
2023-07-31T07:21:36.894Z,27.05
2023-07-31T07:22:36.891Z,27.06
2023-07-31T07:23:36.875Z,27.06
2023-07-31T07:24:36.856Z,27.07
2023-07-31T07:25:36.865Z,27.07
2023-07-31T07:26:36.857Z,27.07
2023-07-31T07:27:36.858Z,27.07
2023-07-31T07:28:36.861Z,27.06
2023-07-31T07:29:36.832Z,27.06
2023-07-31T07:30:36.867Z,27.06
2023-07-31T07:31:36.849Z,27.06
2023-07-31T07:32:36.977Z,27.06
2023-07-31T07:33:36.955Z,27.05
2023-07-31T07:34:37.047Z,27.05
2023-07-31T07:35:37.059Z,27.06
2023-07-31T07:36:37.468Z,27.06
2023-07-31T07:37:37.197Z,27.07
2023-07-31T07:38:37.232Z,27.07
2023-07-31T07:39:37.310Z,27.08
2023-07-31T07:40:37.341Z,27.08
2023-07-31T07:41:37.626Z,27.07
2023-07-31T07:42:37.450Z,27.07
2023-07-31T07:43:37.513Z,27.06
2023-07-31T07:44:37.642Z,27.07
2023-07-31T07:45:37.613Z,27.05
2023-07-31T07:46:38.004Z,27.06
2023-07-31T07:47:37.773Z,27.06
2023-07-31T07:48:37.783Z,27.05
2023-07-31T07:49:37.820Z,27.05
2023-07-31T07:50:37.889Z,27.05
2023-07-31T07:51:38.202Z,27.06
2023-07-31T07:52:37.994Z,27.06
2023-07-31T07:53:38.044Z,27.06
2023-07-31T07:54:38.101Z,27.06
2023-07-31T07:55:38.160Z,27.07
2023-07-31T07:56:38.713Z,27.08
2023-07-31T07:57:38.253Z,27.07
2023-07-31T07:58:38.305Z,27.08
2023-07-31T07:59:38.356Z,27.08
2023-07-31T08:00:38.497Z,27.08
2023-07-31T08:01:38.478Z,27.08
2023-07-31T08:02:38.587Z,27.09
2023-07-31T08:03:38.640Z,27.08
2023-07-31T08:04:38.645Z,27.07
2023-07-31T08:05:38.702Z,27.09
2023-07-31T08:06:39.089Z,27.08
2023-07-31T08:07:38.806Z,27.09
2023-07-31T08:08:38.865Z,27.09
2023-07-31T08:09:38.906Z,27.09
2023-07-31T08:10:38.966Z,27.10
2023-07-31T08:11:39.016Z,27.11
2023-07-31T08:12:39.137Z,27.11
2023-07-31T08:13:39.127Z,27.11
2023-07-31T08:14:39.174Z,27.12
2023-07-31T08:15:39.230Z,27.12
2023-07-31T08:16:39.666Z,27.12
2023-07-31T08:17:39.350Z,27.12
2023-07-31T08:18:39.508Z,27.11
2023-07-31T08:19:39.451Z,27.12
2023-07-31T08:20:39.506Z,27.10
2023-07-31T08:21:39.547Z,27.10
2023-07-31T08:22:39.612Z,27.10
2023-07-31T08:23:39.654Z,27.11
2023-07-31T08:24:39.720Z,27.10
2023-07-31T08:25:39.764Z,27.10
2023-07-31T08:26:40.015Z,27.11
2023-07-31T08:27:39.864Z,27.10
2023-07-31T08:28:39.960Z,27.11
2023-07-31T08:29:40.007Z,27.11
2023-07-31T08:30:40.057Z,27.11
2023-07-31T08:31:40.093Z,27.10
2023-07-31T08:32:40.203Z,27.10
2023-07-31T08:33:40.239Z,27.10
2023-07-31T08:34:40.254Z,27.11
2023-07-31T08:35:40.317Z,27.11
2023-07-31T08:36:40.638Z,27.12
2023-07-31T08:37:40.421Z,27.12
2023-07-31T08:38:40.509Z,27.13
2023-07-31T08:39:40.542Z,27.13
2023-07-31T08:40:40.588Z,27.13
2023-07-31T08:41:40.626Z,27.14
2023-07-31T08:42:40.703Z,27.13
2023-07-31T08:43:40.750Z,27.14
2023-07-31T08:44:40.818Z,27.14
2023-07-31T08:45:40.855Z,27.14
2023-07-31T08:46:41.188Z,27.15
2023-07-31T08:47:40.986Z,27.16
2023-07-31T08:48:41.015Z,27.16
2023-07-31T08:49:41.072Z,27.16
2023-07-31T08:50:41.115Z,27.17
2023-07-31T08:51:41.175Z,27.18
2023-07-31T08:52:41.227Z,27.19
2023-07-31T08:53:41.290Z,27.21
2023-07-31T08:54:41.338Z,27.21
2023-07-31T08:55:41.404Z,27.21
2023-07-31T08:56:41.765Z,27.22
2023-07-31T08:57:41.488Z,27.23
2023-07-31T08:58:41.536Z,27.23
2023-07-31T08:59:41.594Z,27.22
2023-07-31T09:00:41.660Z,27.22
2023-07-31T09:01:41.733Z,27.24
2023-07-31T09:02:41.840Z,27.24
2023-07-31T09:03:41.899Z,27.24
2023-07-31T09:04:41.878Z,27.25
2023-07-31T09:05:41.919Z,27.26
2023-07-31T09:06:42.249Z,27.26
2023-07-31T09:07:42.044Z,27.26
2023-07-31T09:08:42.109Z,27.25
2023-07-31T09:09:42.129Z,27.26
2023-07-31T09:10:42.178Z,27.26
2023-07-31T09:11:42.235Z,27.27
2023-07-31T09:12:42.307Z,27.26
2023-07-31T09:13:42.359Z,27.26
2023-07-31T09:14:42.448Z,27.26
2023-07-31T09:15:42.468Z,27.26
2023-07-31T09:16:42.931Z,27.26
2023-07-31T09:17:42.598Z,27.27
2023-07-31T09:18:42.634Z,27.28
2023-07-31T09:19:42.677Z,27.28
2023-07-31T09:20:42.738Z,27.29
2023-07-31T09:21:42.839Z,27.29
2023-07-31T09:22:42.851Z,27.28
2023-07-31T09:23:42.913Z,27.27
2023-07-31T09:24:42.958Z,27.27
2023-07-31T09:25:43.013Z,27.27
2023-07-31T09:26:43.115Z,27.26
2023-07-31T09:27:43.135Z,27.25
2023-07-31T09:28:43.197Z,27.26
2023-07-31T09:29:43.253Z,27.26
2023-07-31T09:30:43.304Z,27.26
2023-07-31T09:31:43.438Z,27.27
2023-07-31T09:32:43.459Z,27.27
2023-07-31T09:33:43.470Z,27.27
2023-07-31T09:34:43.522Z,27.27
2023-07-31T09:35:43.590Z,27.28
2023-07-31T09:36:43.671Z,27.28
2023-07-31T09:37:43.690Z,27.29
2023-07-31T09:38:43.751Z,27.29
2023-07-31T09:39:43.827Z,27.31
2023-07-31T09:40:43.862Z,27.31
2023-07-31T09:41:43.932Z,27.30
2023-07-31T09:42:43.989Z,27.30
2023-07-31T09:43:44.039Z,27.30
2023-07-31T09:44:44.080Z,27.30
2023-07-31T09:45:44.191Z,27.31
2023-07-31T09:46:44.632Z,27.30
2023-07-31T09:47:44.378Z,27.31
2023-07-31T09:48:44.353Z,27.30
2023-07-31T09:49:44.388Z,27.30
2023-07-31T09:50:44.434Z,27.30
2023-07-31T09:51:44.490Z,27.31
2023-07-31T09:52:44.548Z,27.31
2023-07-31T09:53:44.622Z,27.30
2023-07-31T09:54:44.664Z,27.30
2023-07-31T09:55:44.726Z,27.31
2023-07-31T09:56:44.786Z,27.30
2023-07-31T09:57:44.818Z,27.31
2023-07-31T09:58:44.892Z,27.30
2023-07-31T09:59:44.953Z,27.30
2023-07-31T10:00:45.005Z,27.31
2023-07-31T10:01:45.160Z,27.30
2023-07-31T10:02:45.166Z,27.30
2023-07-31T10:03:45.190Z,27.30
2023-07-31T10:04:46.759Z,27.31
2023-07-31T10:05:45.274Z,27.30
2023-07-31T10:06:45.322Z,27.30
2023-07-31T10:07:45.383Z,27.31
2023-07-31T10:08:45.447Z,27.31
2023-07-31T10:09:45.505Z,27.31
2023-07-31T10:10:45.546Z,27.32
2023-07-31T10:11:45.608Z,27.31
2023-07-31T10:12:45.648Z,27.32
2023-07-31T10:13:45.711Z,27.31
2023-07-31T10:14:45.761Z,27.32
2023-07-31T10:15:45.874Z,27.32
2023-07-31T10:16:45.888Z,27.30
2023-07-31T10:17:45.953Z,27.31
2023-07-31T10:18:45.994Z,27.32
2023-07-31T10:19:46.095Z,27.32
2023-07-31T10:20:46.115Z,27.33
2023-07-31T10:21:46.164Z,27.32
2023-07-31T10:22:46.204Z,27.31
2023-07-31T10:23:46.258Z,27.32
2023-07-31T10:24:46.344Z,27.32
2023-07-31T10:25:46.365Z,27.33
2023-07-31T10:26:46.426Z,27.33
2023-07-31T10:27:46.478Z,27.32
2023-07-31T10:28:46.578Z,27.32
2023-07-31T10:29:46.596Z,27.32
2023-07-31T10:30:46.665Z,27.32
2023-07-31T10:31:46.696Z,27.33
2023-07-31T10:32:46.802Z,27.33
2023-07-31T10:33:46.819Z,27.33
2023-07-31T10:34:46.904Z,27.33
2023-07-31T10:35:46.934Z,27.33
2023-07-31T10:36:46.983Z,27.34
2023-07-31T10:37:47.042Z,27.33
2023-07-31T10:38:47.092Z,27.33
2023-07-31T10:39:47.145Z,27.33
2023-07-31T10:40:47.262Z,27.33
2023-07-31T10:41:47.290Z,27.33
2023-07-31T10:42:47.309Z,27.33
2023-07-31T10:43:47.365Z,27.34
2023-07-31T10:44:47.435Z,27.34
2023-07-31T10:45:47.484Z,27.35
2023-07-31T10:46:47.558Z,27.35
2023-07-31T10:47:47.629Z,27.36
2023-07-31T10:48:47.649Z,27.36
2023-07-31T10:49:47.685Z,27.37
2023-07-31T10:50:47.811Z,27.36
2023-07-31T10:51:47.797Z,27.36
2023-07-31T10:52:47.844Z,27.35
2023-07-31T10:53:47.903Z,27.35
2023-07-31T10:54:47.962Z,27.36
2023-07-31T10:55:48.011Z,27.36
2023-07-31T10:56:48.132Z,27.37
2023-07-31T10:57:48.126Z,27.37
2023-07-31T10:58:48.172Z,27.37
2023-07-31T10:59:48.228Z,27.38
2023-07-31T11:00:48.328Z,27.39
2023-07-31T11:01:48.332Z,27.39
2023-07-31T11:02:48.443Z,27.40
2023-07-31T11:03:48.627Z,27.40
2023-07-31T11:04:48.512Z,27.40
2023-07-31T11:05:48.585Z,27.40
2023-07-31T11:06:48.600Z,27.41
2023-07-31T11:07:48.646Z,27.42
2023-07-31T11:08:48.705Z,27.41
2023-07-31T11:09:48.752Z,27.41
2023-07-31T11:10:48.823Z,27.42
2023-07-31T11:11:48.867Z,27.43
2023-07-31T11:12:48.917Z,27.42
2023-07-31T11:13:48.967Z,27.41
2023-07-31T11:14:49.021Z,27.42
2023-07-31T11:15:49.064Z,27.40
2023-07-31T11:16:49.124Z,27.41
2023-07-31T11:17:49.253Z,27.41
2023-07-31T11:18:49.217Z,27.41
2023-07-31T11:19:49.265Z,27.41
2023-07-31T11:20:49.339Z,27.41
2023-07-31T11:21:49.368Z,27.42
2023-07-31T11:22:49.429Z,27.42
2023-07-31T11:23:49.469Z,27.42
2023-07-31T11:24:49.512Z,27.41
2023-07-31T11:25:49.554Z,27.41
2023-07-31T11:26:49.623Z,27.41
2023-07-31T11:27:49.660Z,27.42
2023-07-31T11:28:49.697Z,27.41
2023-07-31T11:29:49.752Z,27.42
2023-07-31T11:30:49.847Z,27.41
2023-07-31T11:31:49.840Z,27.42
2023-07-31T11:32:49.901Z,27.42
2023-07-31T11:33:49.956Z,27.41
2023-07-31T11:34:49.979Z,27.42
2023-07-31T11:35:50.035Z,27.41
2023-07-31T11:36:50.077Z,27.42
2023-07-31T11:37:50.113Z,27.42
2023-07-31T11:38:50.162Z,27.42
2023-07-31T11:39:50.209Z,27.41
2023-07-31T11:40:50.286Z,27.41
2023-07-31T11:41:50.295Z,27.42
2023-07-31T11:42:50.380Z,27.42
2023-07-31T11:43:50.402Z,27.42
2023-07-31T11:44:50.441Z,27.42
2023-07-31T11:45:50.600Z,27.41
2023-07-31T11:46:50.570Z,27.40
2023-07-31T11:47:50.614Z,27.40
2023-07-31T11:48:50.619Z,27.40
2023-07-31T11:49:50.657Z,27.39
2023-07-31T11:50:50.735Z,27.40
2023-07-31T11:51:50.742Z,27.40
2023-07-31T11:52:50.785Z,27.41
2023-07-31T11:53:50.831Z,27.40
2023-07-31T11:54:50.902Z,27.39
2023-07-31T11:55:50.929Z,27.38
2023-07-31T11:56:50.975Z,27.39
2023-07-31T11:57:51.015Z,27.39
2023-07-31T11:58:51.081Z,27.38
2023-07-31T11:59:51.110Z,27.39
2023-07-31T12:00:51.157Z,27.39
2023-07-31T12:01:51.250Z,27.40
2023-07-31T12:02:51.286Z,27.41
2023-07-31T12:03:51.343Z,27.41
2023-07-31T12:04:51.333Z,27.41
2023-07-31T12:05:51.386Z,27.41
2023-07-31T12:06:51.425Z,27.41
2023-07-31T12:07:51.480Z,27.41
2023-07-31T12:08:51.533Z,27.41
2023-07-31T12:09:51.566Z,27.40
2023-07-31T12:10:51.609Z,27.41
2023-07-31T12:11:51.674Z,27.40
2023-07-31T12:12:51.705Z,27.40
2023-07-31T12:13:51.756Z,27.40
2023-07-31T12:14:51.795Z,27.41
2023-07-31T12:15:51.843Z,27.40
2023-07-31T12:16:51.920Z,27.40
2023-07-31T12:17:51.956Z,27.41
2023-07-31T12:18:51.969Z,27.41
2023-07-31T12:19:52.020Z,27.41
2023-07-31T12:20:52.065Z,27.41
2023-07-31T12:21:52.099Z,27.41
2023-07-31T12:22:52.140Z,27.41
2023-07-31T12:23:52.187Z,27.41
2023-07-31T12:24:52.235Z,27.41
2023-07-31T12:25:52.280Z,27.41
2023-07-31T12:26:52.350Z,27.41
2023-07-31T12:27:52.372Z,27.41
2023-07-31T12:28:52.412Z,27.41
2023-07-31T12:29:52.451Z,27.41
2023-07-31T12:30:52.486Z,27.41
2023-07-31T12:31:52.607Z,27.41
2023-07-31T12:32:52.621Z,27.41
2023-07-31T12:33:52.624Z,27.41
2023-07-31T12:34:52.665Z,27.41
2023-07-31T12:35:52.729Z,27.41
2023-07-31T12:36:52.769Z,27.41
2023-07-31T12:37:52.812Z,27.41
2023-07-31T12:38:52.879Z,27.41
2023-07-31T12:39:52.907Z,27.41
2023-07-31T12:40:52.954Z,27.41
2023-07-31T12:41:53.087Z,27.41
2023-07-31T12:42:53.046Z,27.41
2023-07-31T12:43:53.100Z,27.41
2023-07-31T12:44:53.145Z,27.40
2023-07-31T12:45:53.230Z,27.40
2023-07-31T12:46:53.243Z,27.40
2023-07-31T12:47:53.338Z,27.40
2023-07-31T12:48:53.345Z,27.40
2023-07-31T12:49:53.396Z,27.41
2023-07-31T12:50:53.437Z,27.40
2023-07-31T12:51:53.516Z,27.40
2023-07-31T12:52:53.553Z,27.39